Bernardsville, New Jersey
Current Conditions -  °F | °C
As of 10:53 PM on Friday 24 Oct 2014 (Local Time) from KSMQ Reporting Station
Clear Clear  
Wind Chill: 57°   Ceiling: Unl
Heat Index: 57°   Visibility: 10mi
Dew Point: 36°   Wind: 7mph
Humidity: 45%   Direction: 330°NNW
Pressure: 29.84"   Gusts: NA
Location:  40.72°N, 74.57°W
Report Text: KSMQ 250253Z AUTO 33006KT 10SM CLR 14/02 A2984 RMK AO2 SLP107 T01390022 51012
Loading
Personal Weather Stations






























Interactive Weather Map
Tropical Storm Tracking
New forecast layout! Learn more

10-Day Weather Forecast

Advertisements
Track Severe Weather on mobile